Omaha, NE

5:17 AM CDT on October 15, 2019 (GMT -0500)
Lauritzen Gardens | | Change Station
Active Advisory: Flood Advisory Active Notice: Flood Advisory

Elev 1109 ft 41.24 °N, 95.92 °W | Updated 1 minute ago

Clear
Clear
52.9 °F
Feels Like 52.9 °F
N
3
Wind Variable Wind from WSW
Gusts 8.0 mph

Today
High -- | Low -- °F
--% Chance of Precip.
Yesterday
High -- | Low -- °F
Precip. -- in
Pressure 29.82 in
Visibility 10.0 miles
Clouds Scattered Clouds 25000 ft
Dew Point 44 °F
Humidity 71%
Rainfall 0.00 in
Snow Depth Not available.
7:35 AM 6:43 PM
Full, 98% visible
METAR KOMA 150952Z 33016KT 10SM SCT250 12/06 A2983 RMK AO2 SLP098 T01170061
Pressure 29.82 in
Visibility 10.0 miles
Clouds Scattered Clouds 25000 ft
Dew Point 44 °F
Humidity 71%
Rainfall 0.00 in
Snow Depth Not available.
7:35 AM 6:43 PM
Full, 98% visible
METAR KOMA 150952Z 33016KT 10SM SCT250 12/06 A2983 RMK AO2 SLP098 T01170061

Get Your Daily Forecast Email!

Thanks for signing up!

Be on the lookout for a verification email in your inbox.

You'll start receiving severe weather alerts in your inbox..

×

10-Day Weather Forecast

Almanac

Astronomy

Oct. 15, 2019 Rise Set
Actual Time
Civil Twilight
Nautical Twilight
Astronomical Twilight
Moon
Length of Visible Light
Length of Day
Tomorrow will be .
, % of the Moon is Illuminated

Today's Extremes

State Highs State Lows

Community

WunderPhotos

Category 6

Welcome to Category 6. This is the collective home for Weather Underground's featured writeups by Dr. Jeff Masters (right), Bob Henson (left), Chris Burt, and other regular contributors.

Nearby

Air Quality

  Air Quality AQ Index Pollutant
Not available.

Snow Depth

Station Depth Elevation

Earthquake Activity

City Distance Mag. Time & Date
Minimum magnitude displayed is 2.5.

Coastal Water Temperatures

Place Temperature

Stations

Nearby Weather Stations

Station Location Temp. Windchill Dew Point Humidity Wind Precip. Elev Updated Type
                   

Watches & Warnings

Flood Advisory
Issued: 9:55 AM CDT Oct. 14, 2019 – National Weather Service

The flood advisory continues for
the Missouri River at Omaha.
* Until Friday evening.
* At 9:30 am Monday the stage was 27.4 feet.
* Flood stage is 29.0 feet.
* Forecast... though the river will remain elevated, the trend of
declining river levels will continue this week.



Lat... Lon 4142 9602 4142 9583 4107 9574 4106 9591
      4132 9595



Albright